createdAt,value
2018-08-04T00:00:51.070Z,24.60
2018-08-04T00:01:54.458Z,24.60
2018-08-04T00:02:57.940Z,24.60
2018-08-04T00:04:07.778Z,24.70
2018-08-04T00:05:11.475Z,24.70
2018-08-04T00:06:14.864Z,24.70
2018-08-04T00:07:18.177Z,24.80
2018-08-04T00:08:21.536Z,24.80
2018-08-04T00:09:24.863Z,24.90
2018-08-04T00:10:28.179Z,24.90
2018-08-04T00:11:31.558Z,24.90
2018-08-04T00:12:34.914Z,24.90
2018-08-04T00:13:38.286Z,24.90
2018-08-04T00:14:41.592Z,24.80
2018-08-04T00:15:44.943Z,24.80
2018-08-04T00:16:48.463Z,24.80
2018-08-04T00:17:51.783Z,24.80
2018-08-04T00:18:55.187Z,24.80
2018-08-04T00:19:58.499Z,24.90
2018-08-04T00:21:01.812Z,24.80
2018-08-04T00:22:05.149Z,24.80
2018-08-04T00:23:08.486Z,24.80
2018-08-04T00:24:11.879Z,24.80
2018-08-04T00:25:15.238Z,24.80
2018-08-04T00:26:18.570Z,24.80
2018-08-04T00:27:21.903Z,24.70
2018-08-04T00:28:25.259Z,24.80
2018-08-04T00:29:28.664Z,24.70
2018-08-04T00:30:31.975Z,24.60
2018-08-04T00:31:35.325Z,24.60
2018-08-04T00:32:38.682Z,24.50
2018-08-04T00:33:42.016Z,24.50
2018-08-04T00:34:45.395Z,24.50
2018-08-04T00:35:48.792Z,24.50
2018-08-04T00:36:52.155Z,24.50
2018-08-04T00:37:55.482Z,24.50
2018-08-04T00:38:58.810Z,24.40
2018-08-04T00:40:02.129Z,24.40
2018-08-04T00:41:05.628Z,24.40
2018-08-04T00:42:09.015Z,24.30
2018-08-04T00:43:12.353Z,24.10
2018-08-04T00:44:15.695Z,24.10
2018-08-04T00:45:19.023Z,24.20
2018-08-04T00:46:25.298Z,24.20
2018-08-04T00:47:28.675Z,24.20
2018-08-04T00:48:32.006Z,24.20
2018-08-04T00:49:35.347Z,24.20
2018-08-04T00:50:38.695Z,24.20
2018-08-04T00:51:42.013Z,24.20
2018-08-04T00:52:45.368Z,24.20
2018-08-04T00:53:48.691Z,24.20
2018-08-04T00:54:52.026Z,24.10
2018-08-04T00:55:55.380Z,24.10
2018-08-04T00:56:58.960Z,24.10
2018-08-04T00:58:02.324Z,24.10
2018-08-04T00:59:05.716Z,24.10
2018-08-04T01:00:09.056Z,24.10
2018-08-04T01:01:12.380Z,24.10
2018-08-04T01:02:15.694Z,24.10
2018-08-04T01:03:19.007Z,24.10
2018-08-04T01:04:28.722Z,24.10
2018-08-04T01:05:32.023Z,24.10
2018-08-04T01:06:35.339Z,24.10
2018-08-04T01:07:38.650Z,24.10
2018-08-04T01:08:41.977Z,24.00
2018-08-04T01:09:45.360Z,24.00
2018-08-04T01:10:48.667Z,24.00
2018-08-04T01:11:52.019Z,24.00
2018-08-04T01:12:55.326Z,24.00
2018-08-04T01:13:58.675Z,23.90
2018-08-04T01:15:02.239Z,23.90
2018-08-04T01:16:05.676Z,23.90
2018-08-04T01:17:09.046Z,24.00
2018-08-04T01:18:12.376Z,23.90
2018-08-04T01:19:15.694Z,24.00
2018-08-04T01:20:19.063Z,24.00
2018-08-04T01:21:22.392Z,23.90
2018-08-04T01:22:25.743Z,23.90
2018-08-04T01:23:29.092Z,23.90
2018-08-04T01:24:32.398Z,23.90
2018-08-04T01:25:35.715Z,23.80
2018-08-04T01:26:39.039Z,23.80
2018-08-04T01:27:42.401Z,23.80
2018-08-04T01:28:45.714Z,23.80
2018-08-04T01:29:49.042Z,23.80
2018-08-04T01:30:52.352Z,23.80
2018-08-04T01:32:58.779Z,23.80
2018-08-04T01:34:02.110Z,23.80
2018-08-04T01:35:05.556Z,23.80
2018-08-04T01:36:08.903Z,23.90
2018-08-04T01:37:12.230Z,23.80
2018-08-04T01:38:15.609Z,23.80
2018-08-04T01:39:19.010Z,23.80
2018-08-04T01:40:22.334Z,23.90
2018-08-04T01:41:25.654Z,23.80
2018-08-04T01:42:28.966Z,23.80
2018-08-04T01:43:32.329Z,23.70
2018-08-04T01:44:35.658Z,23.50
2018-08-04T01:45:38.962Z,23.30
2018-08-04T01:46:42.309Z,23.10
2018-08-04T01:47:45.627Z,23.00
2018-08-04T01:48:48.989Z,23.00
2018-08-04T01:49:52.316Z,23.00
2018-08-04T01:50:55.649Z,23.00
2018-08-04T01:53:02.042Z,23.20
2018-08-04T01:54:05.446Z,23.30
2018-08-04T01:55:08.761Z,23.30
2018-08-04T01:56:12.081Z,23.40
2018-08-04T01:57:15.394Z,23.40
2018-08-04T01:58:18.742Z,23.50
2018-08-04T01:59:28.601Z,23.40
2018-08-04T02:00:31.931Z,23.40
2018-08-04T02:01:35.264Z,23.30
2018-08-04T02:02:38.814Z,23.10
2018-08-04T02:03:42.164Z,22.90
2018-08-04T02:04:45.486Z,22.80
2018-08-04T02:05:48.794Z,22.80
2018-08-04T02:06:52.155Z,22.70
2018-08-04T02:07:55.506Z,22.60
2018-08-04T02:08:58.818Z,22.70
2018-08-04T02:10:02.135Z,22.70
2018-08-04T02:11:05.483Z,22.60
2018-08-04T02:12:08.839Z,22.60
2018-08-04T02:13:12.190Z,22.50
2018-08-04T02:14:15.514Z,22.40
2018-08-04T02:15:18.854Z,22.40
2018-08-04T02:16:22.231Z,22.30
2018-08-04T02:17:25.658Z,22.40
2018-08-04T02:18:28.982Z,22.40
2018-08-04T02:19:32.354Z,22.50
2018-08-04T02:20:35.709Z,22.50
2018-08-04T02:21:39.035Z,22.70
2018-08-04T02:22:42.398Z,22.80
2018-08-04T02:23:45.743Z,22.80
2018-08-04T02:24:49.061Z,22.80
2018-08-04T02:25:52.379Z,22.70
2018-08-04T02:26:55.730Z,22.70
2018-08-04T02:27:59.095Z,22.60
2018-08-04T02:29:02.418Z,22.60
2018-08-04T02:30:05.844Z,22.50
2018-08-04T02:31:09.182Z,22.50
2018-08-04T02:32:12.554Z,22.50
2018-08-04T02:33:15.888Z,22.70
2018-08-04T02:35:22.302Z,22.90
2018-08-04T02:36:25.631Z,22.90
2018-08-04T02:37:28.968Z,23.00
2018-08-04T02:38:32.295Z,22.90
2018-08-04T02:39:35.623Z,22.90
2018-08-04T02:40:38.997Z,23.00
2018-08-04T02:41:42.335Z,23.00
2018-08-04T02:42:45.701Z,23.00
2018-08-04T02:43:49.035Z,23.00
2018-08-04T02:44:52.371Z,23.00
2018-08-04T02:45:55.702Z,23.00
2018-08-04T02:46:59.053Z,23.00
2018-08-04T02:48:02.436Z,23.00
2018-08-04T02:49:06.136Z,23.10
2018-08-04T02:50:09.706Z,23.00
2018-08-04T02:51:13.092Z,23.00
2018-08-04T02:52:16.414Z,23.00
2018-08-04T02:53:19.723Z,23.00
2018-08-04T02:54:23.051Z,23.00
2018-08-04T02:55:26.387Z,23.10
2018-08-04T02:56:29.731Z,23.00
2018-08-04T02:57:33.184Z,22.90
2018-08-04T02:58:36.501Z,22.80
2018-08-04T02:59:39.826Z,22.60
2018-08-04T03:00:43.186Z,22.50
2018-08-04T03:01:46.510Z,22.50
2018-08-04T03:02:49.846Z,22.60
2018-08-04T03:03:53.183Z,22.60
2018-08-04T03:04:56.504Z,22.70
2018-08-04T03:05:59.954Z,22.70
2018-08-04T03:07:03.302Z,22.70
2018-08-04T03:08:06.637Z,22.80
2018-08-04T03:09:11.723Z,22.80
2018-08-04T03:10:15.027Z,22.80
2018-08-04T03:11:18.374Z,22.80
2018-08-04T03:12:21.759Z,22.70
2018-08-04T03:13:25.091Z,22.70
2018-08-04T03:14:28.451Z,22.70
2018-08-04T03:15:31.826Z,22.60
2018-08-04T03:16:35.153Z,22.60
2018-08-04T03:17:38.492Z,22.60
2018-08-04T03:18:41.799Z,22.60
2018-08-04T03:19:45.119Z,22.60
2018-08-04T03:20:48.491Z,22.60
2018-08-04T03:21:51.821Z,22.60
2018-08-04T03:22:55.187Z,22.60
2018-08-04T03:23:58.556Z,22.60
2018-08-04T03:25:04.934Z,22.60
2018-08-04T03:26:08.255Z,22.60
2018-08-04T03:27:11.598Z,22.60
2018-08-04T03:28:14.975Z,22.50
2018-08-04T03:29:18.292Z,22.50
2018-08-04T03:30:21.611Z,22.50
2018-08-04T03:31:24.946Z,22.50
2018-08-04T03:32:28.282Z,22.40
2018-08-04T03:33:31.642Z,22.40
2018-08-04T03:34:34.987Z,22.40
2018-08-04T03:35:38.305Z,22.40
2018-08-04T03:36:41.629Z,22.40
2018-08-04T03:37:44.959Z,22.40
2018-08-04T03:38:48.323Z,22.30
2018-08-04T03:39:51.655Z,22.40
2018-08-04T03:40:55.006Z,22.20
2018-08-04T03:41:58.331Z,21.90
2018-08-04T03:43:01.669Z,21.70
2018-08-04T03:44:05.042Z,21.50
2018-08-04T03:45:08.371Z,21.60
2018-08-04T03:46:11.686Z,21.70
2018-08-04T03:47:14.994Z,21.80
2018-08-04T03:48:18.337Z,21.80
2018-08-04T03:49:21.706Z,21.90
2018-08-04T03:50:25.035Z,22.00
2018-08-04T03:51:28.348Z,22.00
2018-08-04T03:52:31.672Z,22.00
2018-08-04T03:53:35.030Z,22.00
2018-08-04T03:54:38.410Z,22.10
2018-08-04T03:55:41.737Z,22.00
2018-08-04T03:56:45.047Z,22.10
2018-08-04T03:57:48.435Z,22.10
2018-08-04T03:58:51.769Z,22.10
2018-08-04T03:59:55.162Z,22.10
2018-08-04T04:00:58.497Z,22.10
2018-08-04T04:02:01.867Z,22.10
2018-08-04T04:03:05.336Z,22.10
2018-08-04T04:06:14.987Z,22.10
2018-08-04T04:07:18.302Z,22.10
2018-08-04T04:08:21.634Z,22.10
2018-08-04T04:09:24.964Z,22.10
2018-08-04T04:10:28.338Z,22.10
2018-08-04T04:11:31.711Z,22.10
2018-08-04T04:13:38.146Z,22.10
2018-08-04T04:14:41.567Z,22.10
2018-08-04T04:15:44.895Z,22.10
2018-08-04T04:16:48.252Z,22.10
2018-08-04T04:17:51.567Z,22.20
2018-08-04T04:18:54.938Z,22.10
2018-08-04T04:19:58.282Z,22.10
2018-08-04T04:21:01.614Z,22.10
2018-08-04T04:22:04.978Z,22.00
2018-08-04T04:23:08.319Z,22.00
2018-08-04T04:24:11.667Z,22.10
2018-08-04T04:25:15.006Z,22.10
2018-08-04T04:26:18.358Z,22.10
2018-08-04T04:27:21.672Z,22.10
2018-08-04T04:28:24.996Z,22.10
2018-08-04T04:29:28.319Z,22.10
2018-08-04T04:30:31.682Z,22.00
2018-08-04T04:31:34.997Z,22.10
2018-08-04T04:32:38.322Z,21.90
2018-08-04T04:33:41.647Z,22.00
2018-08-04T04:34:44.955Z,22.00
2018-08-04T04:35:48.321Z,21.90
2018-08-04T04:36:51.719Z,21.90
2018-08-04T04:37:55.062Z,21.90
2018-08-04T04:38:58.383Z,22.00
2018-08-04T04:40:01.992Z,22.00
2018-08-04T04:41:05.367Z,22.00
2018-08-04T04:42:08.694Z,22.00
2018-08-04T04:43:11.999Z,22.00
2018-08-04T04:44:15.315Z,22.00
2018-08-04T04:45:18.656Z,22.10
2018-08-04T04:46:21.996Z,22.10
2018-08-04T04:47:25.310Z,22.00
2018-08-04T04:48:28.696Z,22.00
2018-08-04T04:49:31.979Z,22.00
2018-08-04T04:50:35.342Z,22.00
2018-08-04T04:51:39.260Z,21.90
2018-08-04T04:52:42.578Z,21.80
2018-08-04T04:53:45.932Z,21.80
2018-08-04T04:54:49.391Z,21.70
2018-08-04T04:55:52.727Z,21.70
2018-08-04T04:56:56.043Z,21.70
2018-08-04T04:57:59.388Z,21.80
2018-08-04T04:59:02.698Z,21.80
2018-08-04T05:00:06.251Z,21.90
2018-08-04T05:01:09.650Z,22.00
2018-08-04T05:02:12.968Z,22.00
2018-08-04T05:03:16.329Z,22.00
2018-08-04T05:04:19.655Z,22.10
2018-08-04T05:05:22.991Z,22.20
2018-08-04T05:06:26.342Z,22.30
2018-08-04T05:07:29.661Z,22.30
2018-08-04T05:08:32.972Z,22.40
2018-08-04T05:09:36.329Z,22.50
2018-08-04T05:10:39.635Z,22.60
2018-08-04T05:11:43.003Z,22.70
2018-08-04T05:12:46.312Z,22.70
2018-08-04T05:13:49.685Z,22.80
2018-08-04T05:14:53.033Z,22.90
2018-08-04T05:15:56.379Z,23.00
2018-08-04T05:16:59.711Z,23.00
2018-08-04T05:18:03.119Z,23.00
2018-08-04T05:19:06.460Z,23.10
2018-08-04T05:20:09.823Z,23.10
2018-08-04T05:21:13.142Z,23.20
2018-08-04T05:22:16.487Z,23.20
2018-08-04T05:23:19.795Z,23.20
2018-08-04T05:24:23.113Z,23.20
2018-08-04T05:25:26.448Z,23.20
2018-08-04T05:26:29.804Z,23.20
2018-08-04T05:27:33.120Z,23.30
2018-08-04T05:28:36.503Z,23.40
2018-08-04T05:29:39.829Z,23.50
2018-08-04T05:30:43.156Z,23.60
2018-08-04T05:31:46.504Z,23.60
2018-08-04T05:32:49.824Z,23.50
2018-08-04T05:33:53.531Z,23.60
2018-08-04T05:34:56.841Z,23.60
2018-08-04T05:36:00.160Z,23.70
2018-08-04T05:37:03.515Z,23.70
2018-08-04T05:39:11.597Z,23.80
2018-08-04T05:40:14.950Z,23.80
2018-08-04T05:41:18.299Z,23.70
2018-08-04T05:42:21.670Z,23.60
2018-08-04T05:43:25.096Z,23.70
2018-08-04T05:44:28.423Z,23.80
2018-08-04T05:45:31.738Z,23.70
2018-08-04T05:46:35.059Z,23.70
2018-08-04T05:47:38.779Z,23.80
2018-08-04T05:48:42.074Z,23.80
2018-08-04T05:49:45.531Z,23.80
2018-08-04T05:50:48.919Z,23.80
2018-08-04T05:51:52.359Z,23.90
2018-08-04T05:52:55.783Z,23.80
2018-08-04T05:53:59.151Z,23.90
2018-08-04T05:55:02.533Z,23.80
2018-08-04T05:56:06.002Z,23.80
2018-08-04T05:57:09.333Z,23.70
2018-08-04T05:58:12.687Z,23.70
2018-08-04T05:59:15.999Z,23.70
2018-08-04T06:00:19.332Z,23.70
2018-08-04T06:01:22.663Z,23.80
2018-08-04T06:02:26.002Z,23.70
2018-08-04T06:03:29.318Z,23.60
2018-08-04T06:04:32.627Z,23.50
2018-08-04T06:05:35.951Z,23.60
2018-08-04T06:06:39.299Z,23.60
2018-08-04T06:07:42.632Z,23.60
2018-08-04T06:08:45.957Z,23.60
2018-08-04T06:09:49.355Z,23.60
2018-08-04T06:10:52.671Z,23.70
2018-08-04T06:11:56.017Z,23.70
2018-08-04T06:12:59.333Z,23.70
2018-08-04T06:14:02.646Z,23.50
2018-08-04T06:15:06.106Z,23.60
2018-08-04T06:16:09.663Z,23.50
2018-08-04T06:17:12.958Z,23.50
2018-08-04T06:18:16.298Z,23.60
2018-08-04T06:19:19.610Z,23.70
2018-08-04T06:20:23.047Z,23.80
2018-08-04T06:21:26.371Z,23.80
2018-08-04T06:22:29.687Z,23.90
2018-08-04T06:23:33.006Z,24.00
2018-08-04T06:24:36.311Z,24.10
2018-08-04T06:25:39.654Z,24.10
2018-08-04T06:26:43.031Z,24.10
2018-08-04T06:27:46.382Z,24.20
2018-08-04T06:28:49.713Z,24.30
2018-08-04T06:29:53.082Z,24.30
2018-08-04T06:30:56.424Z,24.20
2018-08-04T06:31:59.742Z,24.30
2018-08-04T06:33:03.112Z,24.30
2018-08-04T06:34:06.725Z,24.40
2018-08-04T06:35:10.078Z,24.50
2018-08-04T06:36:13.399Z,24.50
2018-08-04T06:37:16.744Z,24.60
2018-08-04T06:38:20.112Z,24.70
2018-08-04T06:39:23.432Z,24.70
2018-08-04T06:40:26.769Z,24.80
2018-08-04T06:41:30.137Z,24.80
2018-08-04T06:42:33.451Z,24.90
2018-08-04T06:43:36.823Z,24.80
2018-08-04T06:44:40.130Z,24.90
2018-08-04T06:45:43.487Z,24.90
2018-08-04T06:46:46.806Z,25.00
2018-08-04T06:47:50.148Z,24.90
2018-08-04T06:48:53.593Z,25.00
2018-08-04T06:49:56.904Z,25.00
2018-08-04T06:51:00.250Z,24.90
2018-08-04T06:52:03.592Z,24.80
2018-08-04T06:53:06.946Z,24.80
2018-08-04T06:54:10.668Z,24.70
2018-08-04T06:55:14.008Z,24.60
2018-08-04T06:56:17.337Z,24.60
2018-08-04T06:57:20.674Z,24.60
2018-08-04T06:58:24.021Z,24.50
2018-08-04T06:59:27.903Z,24.60
2018-08-04T07:00:31.282Z,24.60
2018-08-04T07:01:34.611Z,24.60
2018-08-04T07:02:37.922Z,24.70
2018-08-04T07:03:41.267Z,24.70
2018-08-04T07:04:44.751Z,24.60
2018-08-04T07:05:48.116Z,24.60
2018-08-04T07:06:51.452Z,24.70
2018-08-04T07:07:54.803Z,24.80
2018-08-04T07:08:58.161Z,24.90
2018-08-04T07:10:01.489Z,24.80
2018-08-04T07:11:04.802Z,24.80
2018-08-04T07:12:08.140Z,24.90
2018-08-04T07:13:11.512Z,24.80
2018-08-04T07:14:14.842Z,24.90
2018-08-04T07:15:18.208Z,25.10
2018-08-04T07:16:21.565Z,25.30
2018-08-04T07:17:24.862Z,25.40
2018-08-04T07:18:28.190Z,25.50
2018-08-04T07:19:31.519Z,25.60
2018-08-04T07:20:34.882Z,25.80
2018-08-04T07:21:38.193Z,25.90
2018-08-04T07:22:41.540Z,26.00
2018-08-04T07:23:44.898Z,26.10
2018-08-04T07:24:48.214Z,26.20
2018-08-04T07:25:51.522Z,26.20
2018-08-04T07:26:54.883Z,26.30
2018-08-04T07:27:58.205Z,26.40
2018-08-04T07:29:01.580Z,26.20
2018-08-04T07:30:10.346Z,26.10
2018-08-04T07:31:13.659Z,26.20
2018-08-04T07:32:17.026Z,26.30
2018-08-04T07:33:20.362Z,26.40
2018-08-04T07:34:23.947Z,26.50
2018-08-04T07:35:27.207Z,26.60
2018-08-04T07:36:30.595Z,26.70
2018-08-04T07:37:33.898Z,26.70
2018-08-04T07:38:37.207Z,26.80
2018-08-04T07:39:40.510Z,26.80
2018-08-04T07:40:43.858Z,26.80
2018-08-04T07:41:47.292Z,26.90
2018-08-04T07:42:50.590Z,26.90
2018-08-04T07:43:53.908Z,26.90
2018-08-04T07:44:57.223Z,27.10
2018-08-04T07:46:00.581Z,27.10
2018-08-04T07:47:03.939Z,27.20
2018-08-04T07:48:07.252Z,27.30
2018-08-04T07:49:10.616Z,27.30
2018-08-04T07:50:13.890Z,27.30
2018-08-04T07:51:17.233Z,27.40
2018-08-04T07:54:26.663Z,27.40
2018-08-04T07:56:33.158Z,27.50
2018-08-04T07:57:36.454Z,27.40
2018-08-04T07:58:39.771Z,27.40
2018-08-04T07:59:43.087Z,27.40
2018-08-04T08:00:46.440Z,27.20
2018-08-04T08:01:49.743Z,27.00
2018-08-04T08:02:53.046Z,27.00
2018-08-04T08:03:56.402Z,27.00
2018-08-04T08:04:59.751Z,27.00
2018-08-04T08:06:03.107Z,27.10
2018-08-04T08:07:06.466Z,27.10
2018-08-04T08:08:09.775Z,27.00
2018-08-04T08:09:13.107Z,26.90
2018-08-04T08:10:16.438Z,26.80
2018-08-04T08:11:19.904Z,26.90
2018-08-04T08:12:23.487Z,26.90
2018-08-04T08:13:26.826Z,27.00
2018-08-04T08:14:30.175Z,27.10
2018-08-04T08:15:33.507Z,27.20
2018-08-04T08:16:36.919Z,27.20
2018-08-04T08:17:40.222Z,27.30
2018-08-04T08:18:43.558Z,27.30
2018-08-04T08:19:47.013Z,27.40
2018-08-04T08:20:50.312Z,27.40
2018-08-04T08:21:53.637Z,27.40
2018-08-04T08:22:56.999Z,27.60
2018-08-04T08:24:00.351Z,27.60
2018-08-04T08:25:03.978Z,27.60
2018-08-04T08:26:10.167Z,27.60
2018-08-04T08:27:13.541Z,27.60
2018-08-04T08:28:16.859Z,27.70
2018-08-04T08:31:26.370Z,27.90
2018-08-04T08:32:32.600Z,28.00
2018-08-04T08:33:36.323Z,28.00
2018-08-04T08:34:39.630Z,28.10
2018-08-04T08:35:42.950Z,28.10
2018-08-04T08:36:46.268Z,28.00
2018-08-04T08:37:49.870Z,27.90
2018-08-04T08:38:53.175Z,27.70
2018-08-04T08:39:56.576Z,27.80
2018-08-04T08:41:00.364Z,27.70
2018-08-04T08:42:03.726Z,27.80
2018-08-04T08:43:07.208Z,27.80
2018-08-04T08:44:10.542Z,27.90
2018-08-04T08:45:13.871Z,28.10
2018-08-04T08:46:17.295Z,28.20
2018-08-04T08:47:20.671Z,28.20
2018-08-04T08:48:24.107Z,28.20
2018-08-04T08:49:27.465Z,28.20
2018-08-04T08:50:30.813Z,28.10
2018-08-04T08:51:34.161Z,28.20
2018-08-04T08:52:37.647Z,28.00
2018-08-04T08:53:41.001Z,28.10
2018-08-04T08:54:44.591Z,28.10
2018-08-04T08:55:47.903Z,28.20
2018-08-04T08:56:51.267Z,28.30
2018-08-04T08:57:54.609Z,28.40
2018-08-04T08:58:57.977Z,28.50
2018-08-04T09:00:01.341Z,28.60
2018-08-04T09:01:04.712Z,28.70
2018-08-04T09:02:08.103Z,28.80
2018-08-04T09:03:11.475Z,28.90
2018-08-04T09:04:14.792Z,28.90
2018-08-04T09:05:18.103Z,28.70
2018-08-04T09:06:21.438Z,28.60
2018-08-04T09:07:24.776Z,28.60
2018-08-04T09:08:28.132Z,28.70
2018-08-04T09:09:31.480Z,28.80
2018-08-04T09:10:34.803Z,28.70
2018-08-04T09:11:38.262Z,28.50
2018-08-04T09:12:42.108Z,28.60
2018-08-04T09:13:45.467Z,28.70
2018-08-04T09:14:48.827Z,28.70
2018-08-04T09:15:52.147Z,28.70
2018-08-04T09:16:55.474Z,28.70
2018-08-04T09:17:58.954Z,28.50
2018-08-04T09:19:02.275Z,28.50
2018-08-04T09:20:06.799Z,28.30
2018-08-04T09:21:10.158Z,28.20
2018-08-04T09:22:13.491Z,28.30
2018-08-04T09:23:16.869Z,28.20
2018-08-04T09:24:20.249Z,28.20
2018-08-04T09:25:23.577Z,28.30
2018-08-04T09:26:26.899Z,28.50
2018-08-04T09:27:30.224Z,28.70
2018-08-04T09:28:33.568Z,28.70
2018-08-04T09:29:36.901Z,28.80
2018-08-04T09:30:40.226Z,28.90
2018-08-04T09:31:43.639Z,28.90
2018-08-04T09:32:46.933Z,28.70
2018-08-04T09:33:50.278Z,28.60
2018-08-04T09:34:53.597Z,28.70
2018-08-04T09:35:56.937Z,28.80
2018-08-04T09:37:00.305Z,28.80
2018-08-04T09:38:03.663Z,28.80
2018-08-04T09:39:10.100Z,28.80
2018-08-04T09:40:14.550Z,28.90
2018-08-04T09:41:17.897Z,29.00
2018-08-04T09:42:21.206Z,29.00
2018-08-04T09:43:24.566Z,29.10
2018-08-04T09:44:27.984Z,29.20
2018-08-04T09:45:31.313Z,29.30
2018-08-04T09:46:34.618Z,29.10
2018-08-04T09:47:38.658Z,28.90
2018-08-04T09:48:41.979Z,29.00
2018-08-04T09:49:45.335Z,29.10
2018-08-04T09:50:48.667Z,29.30
2018-08-04T09:51:52.071Z,29.50
2018-08-04T09:52:55.435Z,29.70
2018-08-04T09:53:58.792Z,29.80
2018-08-04T09:55:02.294Z,30.10
2018-08-04T09:57:08.832Z,30.30
2018-08-04T09:58:12.157Z,30.40
2018-08-04T09:59:15.459Z,30.50
2018-08-04T10:00:24.054Z,30.50
2018-08-04T10:01:32.887Z,30.70
2018-08-04T10:02:36.480Z,30.60
2018-08-04T10:03:40.715Z,30.60
2018-08-04T10:04:44.044Z,30.60
2018-08-04T10:05:47.364Z,30.60
2018-08-04T10:06:50.755Z,30.50
2018-08-04T10:07:54.085Z,30.20
2018-08-04T10:08:57.420Z,30.30
2018-08-04T10:10:00.847Z,30.30
2018-08-04T10:11:04.193Z,30.30
2018-08-04T10:12:08.589Z,30.40
2018-08-04T10:13:11.910Z,30.50
2018-08-04T10:14:15.226Z,30.50
2018-08-04T10:15:18.574Z,30.40
2018-08-04T10:16:21.885Z,30.30
2018-08-04T10:17:25.194Z,30.40
2018-08-04T10:18:28.510Z,30.60
2018-08-04T10:19:31.823Z,30.70
2018-08-04T10:20:35.160Z,30.90
2018-08-04T10:21:38.474Z,30.80
2018-08-04T10:22:41.779Z,30.70
2018-08-04T10:23:45.120Z,30.80
2018-08-04T10:24:48.487Z,30.90
2018-08-04T10:25:51.935Z,31.00
2018-08-04T10:26:55.317Z,31.00
2018-08-04T10:27:58.659Z,31.00
2018-08-04T10:29:01.985Z,31.10
2018-08-04T10:30:07.855Z,31.20
2018-08-04T10:31:11.176Z,31.00
2018-08-04T10:32:14.653Z,31.10
2018-08-04T10:33:17.939Z,31.00
2018-08-04T10:34:21.367Z,31.00
2018-08-04T10:35:24.681Z,31.10
2018-08-04T10:36:28.036Z,31.10
2018-08-04T10:37:31.388Z,31.10
2018-08-04T10:38:34.791Z,31.00
2018-08-04T10:39:38.063Z,30.80
2018-08-04T10:40:41.375Z,30.90
2018-08-04T10:41:44.752Z,30.90
2018-08-04T10:42:48.068Z,31.10
2018-08-04T10:43:51.416Z,31.30
2018-08-04T10:44:54.723Z,31.20
2018-08-04T10:45:58.120Z,31.30
2018-08-04T10:48:04.764Z,31.50
2018-08-04T10:49:08.112Z,31.50
2018-08-04T10:50:11.407Z,31.40
2018-08-04T10:51:14.772Z,31.60
2018-08-04T10:52:18.094Z,31.40
2018-08-04T10:53:21.419Z,31.50
2018-08-04T10:54:24.730Z,31.70
2018-08-04T10:55:28.738Z,31.90
2018-08-04T10:56:32.119Z,32.00
2018-08-04T10:57:35.430Z,31.80
2018-08-04T10:58:38.768Z,31.90
2018-08-04T10:59:42.090Z,32.10
2018-08-04T11:00:45.438Z,32.20
2018-08-04T11:01:48.816Z,32.30
2018-08-04T11:02:52.138Z,32.50
2018-08-04T11:03:55.504Z,32.70
2018-08-04T11:04:58.896Z,32.70
2018-08-04T11:06:02.235Z,32.70
2018-08-04T11:07:05.614Z,32.90
2018-08-04T11:08:08.951Z,32.90
2018-08-04T11:09:12.492Z,32.90
2018-08-04T11:10:15.801Z,33.00
2018-08-04T11:11:19.112Z,33.00
2018-08-04T11:12:22.497Z,33.10
2018-08-04T11:13:25.858Z,33.20
2018-08-04T11:14:29.198Z,33.20
2018-08-04T11:15:32.522Z,33.00
2018-08-04T11:16:36.050Z,33.00
2018-08-04T11:17:39.371Z,32.90
2018-08-04T11:18:42.719Z,33.10
2018-08-04T11:19:46.044Z,33.20
2018-08-04T11:20:49.363Z,33.40
2018-08-04T11:23:59.754Z,33.60
2018-08-04T11:25:03.114Z,33.60
2018-08-04T11:26:06.462Z,33.60
2018-08-04T11:27:09.770Z,33.80
2018-08-04T11:28:13.124Z,33.90
2018-08-04T11:29:16.431Z,33.80
2018-08-04T11:30:19.743Z,33.80
2018-08-04T11:31:23.083Z,33.90
2018-08-04T11:32:26.407Z,33.90
2018-08-04T11:33:29.742Z,33.80
2018-08-04T11:34:33.090Z,34.00
2018-08-04T11:35:36.399Z,34.00
2018-08-04T11:36:39.706Z,33.80
2018-08-04T11:37:43.131Z,33.80
2018-08-04T11:38:46.394Z,34.00
2018-08-04T11:39:49.710Z,33.90
2018-08-04T11:40:53.030Z,33.90
2018-08-04T11:41:56.344Z,34.00
2018-08-04T11:42:59.654Z,34.00
2018-08-04T11:44:02.967Z,33.90
2018-08-04T11:45:06.541Z,33.70
2018-08-04T11:46:10.069Z,33.70
2018-08-04T11:47:13.428Z,33.50
2018-08-04T11:48:16.748Z,33.60
2018-08-04T11:49:20.090Z,33.70
2018-08-04T11:50:23.471Z,33.80
2018-08-04T11:51:26.850Z,34.00
2018-08-04T11:52:30.179Z,34.10
2018-08-04T11:53:33.527Z,34.30
2018-08-04T11:54:36.879Z,34.20
2018-08-04T11:55:40.210Z,34.20
2018-08-04T11:56:43.537Z,34.10
2018-08-04T11:57:46.872Z,34.30
2018-08-04T11:58:50.253Z,34.40
2018-08-04T11:59:53.567Z,33.90
2018-08-04T12:00:56.947Z,34.00
2018-08-04T12:02:00.384Z,34.00
2018-08-04T12:03:03.735Z,34.20
2018-08-04T12:04:07.111Z,34.30
2018-08-04T12:05:10.532Z,34.20
2018-08-04T12:06:13.942Z,34.00
2018-08-04T12:07:17.436Z,34.10
2018-08-04T12:08:21.059Z,34.20
2018-08-04T12:09:24.858Z,34.10
2018-08-04T12:10:28.374Z,33.80
2018-08-04T12:12:41.315Z,33.60
2018-08-04T12:13:44.631Z,33.60
2018-08-04T12:14:48.069Z,33.30
2018-08-04T12:15:51.644Z,33.30
2018-08-04T12:16:55.421Z,33.50
2018-08-04T12:17:58.814Z,33.60
2018-08-04T12:19:02.234Z,33.80
2018-08-04T12:20:05.786Z,33.80
2018-08-04T12:21:09.107Z,34.00
2018-08-04T12:22:12.478Z,34.10
2018-08-04T12:23:15.819Z,34.30
2018-08-04T12:24:19.204Z,34.30
2018-08-04T12:25:22.597Z,34.40
2018-08-04T12:26:25.955Z,34.10
2018-08-04T12:27:29.331Z,34.20
2018-08-04T12:28:32.664Z,34.20
2018-08-04T12:29:35.991Z,34.30
2018-08-04T12:30:39.318Z,34.50
2018-08-04T12:31:42.638Z,34.60
2018-08-04T12:32:46.067Z,34.70
2018-08-04T12:33:49.406Z,34.90
2018-08-04T12:34:52.798Z,34.70
2018-08-04T12:35:56.110Z,34.70
2018-08-04T12:36:59.468Z,34.90
2018-08-04T12:38:02.893Z,35.00
2018-08-04T12:39:08.198Z,35.00
2018-08-04T12:40:11.523Z,35.20
2018-08-04T12:41:14.955Z,35.30
2018-08-04T12:42:18.420Z,35.20
2018-08-04T12:43:21.802Z,35.40
2018-08-04T12:44:25.154Z,35.30
2018-08-04T12:45:28.491Z,35.30
2018-08-04T12:46:31.816Z,35.50
2018-08-04T12:47:35.129Z,35.50
2018-08-04T12:48:38.482Z,34.70
2018-08-04T12:49:41.800Z,34.50
2018-08-04T12:50:45.135Z,34.30
2018-08-04T12:51:48.463Z,34.40
2018-08-04T12:52:58.650Z,34.40
2018-08-04T12:54:02.331Z,34.40
2018-08-04T12:55:05.730Z,34.50
2018-08-04T12:56:09.050Z,34.80
2018-08-04T12:57:12.368Z,35.00
2018-08-04T12:58:15.771Z,35.00
2018-08-04T12:59:19.143Z,35.00
2018-08-04T13:00:22.446Z,35.30
2018-08-04T13:01:25.758Z,35.50
2018-08-04T13:02:29.120Z,35.50
2018-08-04T13:03:32.447Z,35.70
2018-08-04T13:04:35.810Z,35.90
2018-08-04T13:05:39.139Z,36.10
2018-08-04T13:06:42.460Z,36.10
2018-08-04T13:07:45.899Z,36.30
2018-08-04T13:08:49.507Z,36.30
2018-08-04T13:09:52.896Z,36.20
2018-08-04T16:44:38.330Z,33.80
2018-08-04T16:46:44.716Z,33.80
2018-08-04T16:47:48.061Z,33.70
2018-08-04T16:49:54.406Z,33.70
2018-08-04T16:50:57.751Z,33.70
2018-08-04T16:52:01.082Z,33.60
2018-08-04T16:53:04.506Z,33.50
2018-08-04T16:54:07.824Z,33.50
2018-08-04T16:55:11.134Z,33.50
2018-08-04T16:56:14.522Z,33.50
2018-08-04T16:57:17.848Z,33.60
2018-08-04T16:58:21.237Z,33.50
2018-08-04T16:59:24.603Z,33.60
2018-08-04T17:00:27.926Z,33.60
2018-08-04T17:01:31.232Z,33.60
2018-08-04T17:02:34.554Z,33.50
2018-08-04T17:03:37.899Z,33.60
2018-08-04T17:04:41.250Z,33.50
2018-08-04T17:05:44.634Z,33.50
2018-08-04T17:06:47.967Z,33.30
2018-08-04T17:07:51.320Z,33.30
2018-08-04T17:08:54.650Z,33.30
2018-08-04T17:09:57.949Z,33.20
2018-08-04T17:11:01.280Z,33.10
2018-08-04T17:12:04.669Z,33.10
2018-08-04T17:13:08.004Z,33.10
2018-08-04T17:15:14.395Z,32.90
2018-08-04T17:16:17.709Z,32.70
2018-08-04T17:17:21.050Z,32.70
2018-08-04T17:18:24.408Z,32.70
2018-08-04T17:19:27.701Z,32.60
2018-08-04T17:20:31.050Z,32.60
2018-08-04T17:21:34.443Z,32.60
2018-08-04T17:22:37.792Z,32.60
2018-08-04T17:23:41.095Z,32.50
2018-08-04T17:24:44.412Z,32.40
2018-08-04T17:25:47.769Z,32.40
2018-08-04T17:26:51.551Z,32.50
2018-08-04T17:27:54.861Z,32.40
2018-08-04T17:28:58.206Z,32.40
2018-08-04T17:30:01.511Z,32.50
2018-08-04T17:31:04.831Z,32.50
2018-08-04T17:32:08.167Z,32.40